sensor_id;sensor_type;location;lat;lon;timestamp;P1;durP1;ratioP1;P2;durP2;ratioP2
52067;SDS011;60237;52.338;21.228;2023-03-16T00:00:46;100.47;;;32.40;;
52067;SDS011;60237;52.338;21.228;2023-03-16T00:03:12;111.13;;;30.42;;
52067;SDS011;60237;52.338;21.228;2023-03-16T00:05:53;124.50;;;30.67;;
52067;SDS011;60237;52.338;21.228;2023-03-16T00:08:20;117.50;;;29.45;;
52067;SDS011;60237;52.338;21.228;2023-03-16T00:10:46;131.32;;;29.42;;
52067;SDS011;60237;52.338;21.228;2023-03-16T00:13:17;99.40;;;30.05;;
52067;SDS011;60237;52.338;21.228;2023-03-16T00:15:50;114.97;;;27.98;;
52067;SDS011;60237;52.338;21.228;2023-03-16T00:20:43;102.75;;;26.50;;
52067;SDS011;60237;52.338;21.228;2023-03-16T00:23:09;104.68;;;28.30;;
52067;SDS011;60237;52.338;21.228;2023-03-16T00:25:37;124.10;;;30.15;;
52067;SDS011;60237;52.338;21.228;2023-03-16T00:28:03;101.97;;;30.40;;
52067;SDS011;60237;52.338;21.228;2023-03-16T00:30:30;94.78;;;29.90;;
52067;SDS011;60237;52.338;21.228;2023-03-16T00:32:57;110.22;;;29.58;;
52067;SDS011;60237;52.338;21.228;2023-03-16T00:35:24;195.95;;;34.60;;
52067;SDS011;60237;52.338;21.228;2023-03-16T00:37:51;145.82;;;34.00;;
52067;SDS011;60237;52.338;21.228;2023-03-16T00:40:17;108.50;;;29.65;;
52067;SDS011;60237;52.338;21.228;2023-03-16T00:42:44;98.13;;;28.20;;
52067;SDS011;60237;52.338;21.228;2023-03-16T00:45:10;104.15;;;29.95;;
52067;SDS011;60237;52.338;21.228;2023-03-16T00:47:37;124.68;;;30.63;;
52067;SDS011;60237;52.338;21.228;2023-03-16T00:50:03;92.07;;;29.17;;
52067;SDS011;60237;52.338;21.228;2023-03-16T00:52:30;100.78;;;27.67;;
52067;SDS011;60237;52.338;21.228;2023-03-16T00:54:57;90.57;;;28.77;;
52067;SDS011;60237;52.338;21.228;2023-03-16T00:57:25;103.80;;;28.10;;
52067;SDS011;60237;52.338;21.228;2023-03-16T00:59:54;88.78;;;27.63;;
52067;SDS011;60237;52.338;21.228;2023-03-16T01:02:20;129.90;;;31.90;;
52067;SDS011;60237;52.338;21.228;2023-03-16T01:04:50;118.30;;;30.77;;
52067;SDS011;60237;52.338;21.228;2023-03-16T01:07:17;98.53;;;29.80;;
52067;SDS011;60237;52.338;21.228;2023-03-16T01:09:44;127.05;;;29.50;;
52067;SDS011;60237;52.338;21.228;2023-03-16T01:12:11;93.88;;;29.20;;
52067;SDS011;60237;52.338;21.228;2023-03-16T01:14:38;97.95;;;27.73;;
52067;SDS011;60237;52.338;21.228;2023-03-16T01:17:05;125.93;;;30.60;;
52067;SDS011;60237;52.338;21.228;2023-03-16T01:19:35;122.38;;;30.83;;
52067;SDS011;60237;52.338;21.228;2023-03-16T01:22:03;94.97;;;30.70;;
52067;SDS011;60237;52.338;21.228;2023-03-16T01:24:30;114.95;;;30.70;;
52067;SDS011;60237;52.338;21.228;2023-03-16T01:26:58;116.25;;;31.02;;
52067;SDS011;60237;52.338;21.228;2023-03-16T01:29:25;110.78;;;30.30;;
52067;SDS011;60237;52.338;21.228;2023-03-16T01:31:53;157.30;;;34.92;;
52067;SDS011;60237;52.338;21.228;2023-03-16T01:34:21;108.20;;;30.80;;
52067;SDS011;60237;52.338;21.228;2023-03-16T01:36:48;118.20;;;30.23;;
52067;SDS011;60237;52.338;21.228;2023-03-16T01:39:23;127.40;;;31.27;;
52067;SDS011;60237;52.338;21.228;2023-03-16T01:41:49;139.55;;;31.95;;
52067;SDS011;60237;52.338;21.228;2023-03-16T01:44:20;98.15;;;31.83;;
52067;SDS011;60237;52.338;21.228;2023-03-16T01:46:48;123.43;;;30.25;;
52067;SDS011;60237;52.338;21.228;2023-03-16T01:49:22;117.93;;;30.40;;
52067;SDS011;60237;52.338;21.228;2023-03-16T01:54:34;150.25;;;33.95;;
52067;SDS011;60237;52.338;21.228;2023-03-16T01:57:03;140.18;;;32.30;;
52067;SDS011;60237;52.338;21.228;2023-03-16T01:59:40;102.13;;;29.83;;
52067;SDS011;60237;52.338;21.228;2023-03-16T02:02:08;102.38;;;30.25;;
52067;SDS011;60237;52.338;21.228;2023-03-16T02:04:48;138.73;;;30.92;;
52067;SDS011;60237;52.338;21.228;2023-03-16T02:07:18;110.57;;;31.08;;
52067;SDS011;60237;52.338;21.228;2023-03-16T02:09:47;173.45;;;34.50;;
52067;SDS011;60237;52.338;21.228;2023-03-16T02:12:15;131.75;;;29.83;;
52067;SDS011;60237;52.338;21.228;2023-03-16T02:14:52;117.50;;;29.88;;
52067;SDS011;60237;52.338;21.228;2023-03-16T02:17:25;123.40;;;30.08;;
52067;SDS011;60237;52.338;21.228;2023-03-16T02:22:26;129.73;;;32.25;;
52067;SDS011;60237;52.338;21.228;2023-03-16T02:24:53;156.40;;;32.38;;
52067;SDS011;60237;52.338;21.228;2023-03-16T02:30:04;141.52;;;33.80;;
52067;SDS011;60237;52.338;21.228;2023-03-16T02:32:37;105.68;;;31.70;;
52067;SDS011;60237;52.338;21.228;2023-03-16T02:35:06;126.90;;;30.63;;
52067;SDS011;60237;52.338;21.228;2023-03-16T02:37:33;99.70;;;28.80;;
52067;SDS011;60237;52.338;21.228;2023-03-16T02:40:01;105.72;;;28.98;;
52067;SDS011;60237;52.338;21.228;2023-03-16T02:42:38;108.68;;;28.88;;
52067;SDS011;60237;52.338;21.228;2023-03-16T02:45:05;97.22;;;25.98;;
52067;SDS011;60237;52.338;21.228;2023-03-16T02:47:40;134.80;;;28.65;;
52067;SDS011;60237;52.338;21.228;2023-03-16T02:50:09;154.00;;;31.75;;
52067;SDS011;60237;52.338;21.228;2023-03-16T02:52:36;92.97;;;28.13;;
52067;SDS011;60237;52.338;21.228;2023-03-16T02:55:04;132.32;;;28.25;;
52067;SDS011;60237;52.338;21.228;2023-03-16T02:57:31;105.47;;;27.63;;
52067;SDS011;60237;52.338;21.228;2023-03-16T03:00:03;113.32;;;26.85;;
52067;SDS011;60237;52.338;21.228;2023-03-16T03:02:47;108.95;;;25.80;;
52067;SDS011;60237;52.338;21.228;2023-03-16T03:05:14;107.38;;;26.55;;
52067;SDS011;60237;52.338;21.228;2023-03-16T03:07:40;115.22;;;25.98;;
52067;SDS011;60237;52.338;21.228;2023-03-16T03:10:07;124.75;;;28.70;;
52067;SDS011;60237;52.338;21.228;2023-03-16T03:12:34;109.00;;;28.75;;
52067;SDS011;60237;52.338;21.228;2023-03-16T03:15:04;121.32;;;28.13;;
52067;SDS011;60237;52.338;21.228;2023-03-16T03:17:38;117.18;;;28.15;;
52067;SDS011;60237;52.338;21.228;2023-03-16T03:20:04;115.35;;;27.20;;
52067;SDS011;60237;52.338;21.228;2023-03-16T03:22:39;95.00;;;24.42;;
52067;SDS011;60237;52.338;21.228;2023-03-16T03:25:05;121.60;;;27.63;;
52067;SDS011;60237;52.338;21.228;2023-03-16T03:27:32;113.35;;;28.13;;
52067;SDS011;60237;52.338;21.228;2023-03-16T03:30:04;100.50;;;25.70;;
52067;SDS011;60237;52.338;21.228;2023-03-16T03:32:31;96.80;;;24.60;;
52067;SDS011;60237;52.338;21.228;2023-03-16T03:34:58;122.07;;;25.77;;
52067;SDS011;60237;52.338;21.228;2023-03-16T03:37:24;88.93;;;25.00;;
52067;SDS011;60237;52.338;21.228;2023-03-16T03:39:51;105.85;;;25.42;;
52067;SDS011;60237;52.338;21.228;2023-03-16T03:42:19;115.60;;;26.00;;
52067;SDS011;60237;52.338;21.228;2023-03-16T03:44:49;98.43;;;24.52;;
52067;SDS011;60237;52.338;21.228;2023-03-16T03:47:19;93.75;;;23.75;;
52067;SDS011;60237;52.338;21.228;2023-03-16T03:49:46;151.00;;;27.30;;
52067;SDS011;60237;52.338;21.228;2023-03-16T03:52:12;139.13;;;27.45;;
52067;SDS011;60237;52.338;21.228;2023-03-16T03:54:39;72.65;;;22.10;;
52067;SDS011;60237;52.338;21.228;2023-03-16T03:57:11;112.95;;;25.00;;
52067;SDS011;60237;52.338;21.228;2023-03-16T03:59:38;92.15;;;24.40;;
52067;SDS011;60237;52.338;21.228;2023-03-16T04:02:09;102.32;;;25.40;;
52067;SDS011;60237;52.338;21.228;2023-03-16T04:04:41;96.57;;;23.85;;
52067;SDS011;60237;52.338;21.228;2023-03-16T04:07:10;73.50;;;22.52;;
52067;SDS011;60237;52.338;21.228;2023-03-16T04:09:37;124.38;;;25.20;;
52067;SDS011;60237;52.338;21.228;2023-03-16T04:12:05;89.95;;;24.50;;
52067;SDS011;60237;52.338;21.228;2023-03-16T04:14:32;96.28;;;22.98;;
52067;SDS011;60237;52.338;21.228;2023-03-16T04:17:02;112.72;;;24.95;;
52067;SDS011;60237;52.338;21.228;2023-03-16T04:19:32;102.90;;;24.48;;
52067;SDS011;60237;52.338;21.228;2023-03-16T04:21:59;77.30;;;23.13;;
52067;SDS011;60237;52.338;21.228;2023-03-16T04:24:25;107.38;;;24.90;;
52067;SDS011;60237;52.338;21.228;2023-03-16T04:26:52;141.25;;;25.80;;
52067;SDS011;60237;52.338;21.228;2023-03-16T04:29:19;97.07;;;25.10;;
52067;SDS011;60237;52.338;21.228;2023-03-16T04:31:46;137.98;;;26.90;;
52067;SDS011;60237;52.338;21.228;2023-03-16T04:34:12;103.13;;;25.15;;
52067;SDS011;60237;52.338;21.228;2023-03-16T04:36:39;99.78;;;23.40;;
52067;SDS011;60237;52.338;21.228;2023-03-16T04:39:08;115.95;;;25.92;;
52067;SDS011;60237;52.338;21.228;2023-03-16T04:41:35;145.35;;;26.80;;
52067;SDS011;60237;52.338;21.228;2023-03-16T04:44:10;104.82;;;24.70;;
52067;SDS011;60237;52.338;21.228;2023-03-16T04:46:37;103.22;;;24.23;;
52067;SDS011;60237;52.338;21.228;2023-03-16T04:49:06;94.07;;;23.60;;
52067;SDS011;60237;52.338;21.228;2023-03-16T04:51:35;108.63;;;24.15;;
52067;SDS011;60237;52.338;21.228;2023-03-16T04:54:06;150.52;;;27.92;;
52067;SDS011;60237;52.338;21.228;2023-03-16T04:56:34;92.10;;;26.52;;
52067;SDS011;60237;52.338;21.228;2023-03-16T04:59:06;131.50;;;28.30;;
52067;SDS011;60237;52.338;21.228;2023-03-16T05:01:43;111.28;;;24.90;;
52067;SDS011;60237;52.338;21.228;2023-03-16T05:04:11;95.63;;;25.05;;
52067;SDS011;60237;52.338;21.228;2023-03-16T05:06:45;111.97;;;24.70;;
52067;SDS011;60237;52.338;21.228;2023-03-16T05:09:12;123.22;;;28.15;;
52067;SDS011;60237;52.338;21.228;2023-03-16T05:11:39;128.30;;;28.38;;
52067;SDS011;60237;52.338;21.228;2023-03-16T05:14:08;110.35;;;28.13;;
52067;SDS011;60237;52.338;21.228;2023-03-16T05:16:48;114.82;;;28.73;;
52067;SDS011;60237;52.338;21.228;2023-03-16T05:19:14;121.15;;;28.15;;
52067;SDS011;60237;52.338;21.228;2023-03-16T05:21:42;113.55;;;29.50;;
52067;SDS011;60237;52.338;21.228;2023-03-16T05:24:08;103.93;;;27.67;;
52067;SDS011;60237;52.338;21.228;2023-03-16T05:26:35;133.88;;;30.75;;
52067;SDS011;60237;52.338;21.228;2023-03-16T05:29:05;90.20;;;25.10;;
52067;SDS011;60237;52.338;21.228;2023-03-16T05:31:31;89.10;;;26.98;;
52067;SDS011;60237;52.338;21.228;2023-03-16T05:34:00;94.13;;;30.15;;
52067;SDS011;60237;52.338;21.228;2023-03-16T05:36:27;112.03;;;35.95;;
52067;SDS011;60237;52.338;21.228;2023-03-16T05:38:59;126.15;;;34.72;;
52067;SDS011;60237;52.338;21.228;2023-03-16T05:41:35;134.73;;;34.63;;
52067;SDS011;60237;52.338;21.228;2023-03-16T05:44:22;134.90;;;30.40;;
52067;SDS011;60237;52.338;21.228;2023-03-16T05:47:11;91.15;;;25.30;;
52067;SDS011;60237;52.338;21.228;2023-03-16T05:49:43;146.48;;;28.35;;
52067;SDS011;60237;52.338;21.228;2023-03-16T05:52:20;75.93;;;20.58;;
52067;SDS011;60237;52.338;21.228;2023-03-16T05:54:46;103.97;;;24.20;;
52067;SDS011;60237;52.338;21.228;2023-03-16T05:57:13;94.97;;;22.55;;
52067;SDS011;60237;52.338;21.228;2023-03-16T05:59:41;74.75;;;19.83;;
52067;SDS011;60237;52.338;21.228;2023-03-16T06:02:10;95.68;;;20.90;;
52067;SDS011;60237;52.338;21.228;2023-03-16T06:04:36;94.00;;;20.48;;
52067;SDS011;60237;52.338;21.228;2023-03-16T06:07:03;65.25;;;18.25;;
52067;SDS011;60237;52.338;21.228;2023-03-16T06:09:30;79.50;;;20.33;;
52067;SDS011;60237;52.338;21.228;2023-03-16T06:11:57;115.82;;;22.35;;
52067;SDS011;60237;52.338;21.228;2023-03-16T06:14:23;73.97;;;18.83;;
52067;SDS011;60237;52.338;21.228;2023-03-16T06:16:52;119.03;;;21.25;;
52067;SDS011;60237;52.338;21.228;2023-03-16T06:19:20;71.15;;;18.05;;
52067;SDS011;60237;52.338;21.228;2023-03-16T06:21:51;113.13;;;19.23;;
52067;SDS011;60237;52.338;21.228;2023-03-16T06:24:18;119.20;;;20.88;;
52067;SDS011;60237;52.338;21.228;2023-03-16T06:26:44;77.53;;;17.85;;
52067;SDS011;60237;52.338;21.228;2023-03-16T06:29:11;84.50;;;19.20;;
52067;SDS011;60237;52.338;21.228;2023-03-16T06:31:39;91.13;;;19.30;;
52067;SDS011;60237;52.338;21.228;2023-03-16T06:34:06;68.13;;;17.02;;
52067;SDS011;60237;52.338;21.228;2023-03-16T06:36:33;69.55;;;16.40;;
52067;SDS011;60237;52.338;21.228;2023-03-16T06:39:01;94.78;;;19.17;;
52067;SDS011;60237;52.338;21.228;2023-03-16T06:41:40;69.45;;;17.23;;
52067;SDS011;60237;52.338;21.228;2023-03-16T06:44:10;78.95;;;16.73;;
52067;SDS011;60237;52.338;21.228;2023-03-16T06:49:09;85.72;;;19.17;;
52067;SDS011;60237;52.338;21.228;2023-03-16T06:51:37;103.03;;;18.92;;
52067;SDS011;60237;52.338;21.228;2023-03-16T06:54:03;84.38;;;17.98;;
52067;SDS011;60237;52.338;21.228;2023-03-16T06:56:32;65.60;;;16.75;;
52067;SDS011;60237;52.338;21.228;2023-03-16T06:58:58;113.88;;;18.98;;
52067;SDS011;60237;52.338;21.228;2023-03-16T07:01:25;76.25;;;16.00;;
52067;SDS011;60237;52.338;21.228;2023-03-16T07:03:51;73.43;;;15.85;;
52067;SDS011;60237;52.338;21.228;2023-03-16T07:06:23;102.13;;;18.25;;
52067;SDS011;60237;52.338;21.228;2023-03-16T07:08:49;79.68;;;14.57;;
52067;SDS011;60237;52.338;21.228;2023-03-16T07:11:17;70.30;;;14.98;;
52067;SDS011;60237;52.338;21.228;2023-03-16T07:13:45;102.55;;;16.08;;
52067;SDS011;60237;52.338;21.228;2023-03-16T07:16:13;65.40;;;13.20;;
52067;SDS011;60237;52.338;21.228;2023-03-16T07:18:40;58.33;;;12.65;;
52067;SDS011;60237;52.338;21.228;2023-03-16T07:21:12;94.38;;;14.43;;
52067;SDS011;60237;52.338;21.228;2023-03-16T07:23:39;61.97;;;12.20;;
52067;SDS011;60237;52.338;21.228;2023-03-16T07:26:07;60.53;;;12.32;;
52067;SDS011;60237;52.338;21.228;2023-03-16T07:28:38;53.17;;;10.93;;
52067;SDS011;60237;52.338;21.228;2023-03-16T07:31:05;57.22;;;10.85;;
52067;SDS011;60237;52.338;21.228;2023-03-16T07:33:37;74.85;;;12.98;;
52067;SDS011;60237;52.338;21.228;2023-03-16T07:36:06;43.88;;;10.75;;
52067;SDS011;60237;52.338;21.228;2023-03-16T07:38:38;53.70;;;11.23;;
52067;SDS011;60237;52.338;21.228;2023-03-16T07:41:05;100.45;;;13.90;;
52067;SDS011;60237;52.338;21.228;2023-03-16T07:43:33;46.83;;;10.73;;
52067;SDS011;60237;52.338;21.228;2023-03-16T07:46:00;56.53;;;10.10;;
52067;SDS011;60237;52.338;21.228;2023-03-16T07:48:27;75.85;;;10.95;;
52067;SDS011;60237;52.338;21.228;2023-03-16T07:50:58;55.55;;;11.77;;
52067;SDS011;60237;52.338;21.228;2023-03-16T07:53:25;52.90;;;9.40;;
52067;SDS011;60237;52.338;21.228;2023-03-16T07:56:06;84.82;;;12.13;;
52067;SDS011;60237;52.338;21.228;2023-03-16T07:58:35;51.97;;;10.70;;
52067;SDS011;60237;52.338;21.228;2023-03-16T08:01:02;69.65;;;10.18;;
52067;SDS011;60237;52.338;21.228;2023-03-16T08:03:29;49.22;;;9.25;;
52067;SDS011;60237;52.338;21.228;2023-03-16T08:05:57;63.08;;;10.05;;
52067;SDS011;60237;52.338;21.228;2023-03-16T08:08:25;83.80;;;11.70;;
52067;SDS011;60237;52.338;21.228;2023-03-16T08:10:51;69.13;;;10.68;;
52067;SDS011;60237;52.338;21.228;2023-03-16T08:13:26;42.67;;;9.48;;
52067;SDS011;60237;52.338;21.228;2023-03-16T08:15:53;83.10;;;11.93;;
52067;SDS011;60237;52.338;21.228;2023-03-16T08:18:35;51.25;;;8.63;;
52067;SDS011;60237;52.338;21.228;2023-03-16T08:21:02;342.08;;;41.22;;
52067;SDS011;60237;52.338;21.228;2023-03-16T08:23:29;80.00;;;11.48;;
52067;SDS011;60237;52.338;21.228;2023-03-16T08:25:58;78.97;;;10.80;;
52067;SDS011;60237;52.338;21.228;2023-03-16T08:28:26;68.78;;;10.07;;
52067;SDS011;60237;52.338;21.228;2023-03-16T08:30:54;54.22;;;8.77;;
52067;SDS011;60237;52.338;21.228;2023-03-16T08:33:47;76.82;;;9.90;;
52067;SDS011;60237;52.338;21.228;2023-03-16T08:36:18;66.88;;;9.15;;
52067;SDS011;60237;52.338;21.228;2023-03-16T08:38:48;70.93;;;9.85;;
52067;SDS011;60237;52.338;21.228;2023-03-16T08:41:36;85.03;;;10.10;;
52067;SDS011;60237;52.338;21.228;2023-03-16T08:44:07;94.93;;;10.77;;
52067;SDS011;60237;52.338;21.228;2023-03-16T08:46:33;42.28;;;7.47;;
52067;SDS011;60237;52.338;21.228;2023-03-16T08:49:01;52.47;;;8.18;;
52067;SDS011;60237;52.338;21.228;2023-03-16T08:51:28;81.40;;;10.80;;
52067;SDS011;60237;52.338;21.228;2023-03-16T08:53:54;82.45;;;10.32;;
52067;SDS011;60237;52.338;21.228;2023-03-16T08:56:21;61.25;;;8.68;;
52067;SDS011;60237;52.338;21.228;2023-03-16T08:58:47;66.55;;;9.13;;
52067;SDS011;60237;52.338;21.228;2023-03-16T09:01:18;45.55;;;7.72;;
52067;SDS011;60237;52.338;21.228;2023-03-16T09:03:45;60.47;;;8.63;;
52067;SDS011;60237;52.338;21.228;2023-03-16T09:06:13;59.13;;;8.60;;
52067;SDS011;60237;52.338;21.228;2023-03-16T09:08:39;39.15;;;7.03;;
52067;SDS011;60237;52.338;21.228;2023-03-16T09:11:13;82.65;;;9.60;;
52067;SDS011;60237;52.338;21.228;2023-03-16T09:13:41;103.60;;;11.77;;
52067;SDS011;60237;52.338;21.228;2023-03-16T09:16:08;42.42;;;6.90;;
52067;SDS011;60237;52.338;21.228;2023-03-16T09:18:35;42.67;;;6.93;;
52067;SDS011;60237;52.338;21.228;2023-03-16T09:21:03;85.50;;;9.23;;
52067;SDS011;60237;52.338;21.228;2023-03-16T09:23:30;51.25;;;8.20;;
52067;SDS011;60237;52.338;21.228;2023-03-16T09:25:57;65.50;;;8.18;;
52067;SDS011;60237;52.338;21.228;2023-03-16T09:28:27;57.85;;;7.43;;
52067;SDS011;60237;52.338;21.228;2023-03-16T09:30:54;50.33;;;6.57;;
52067;SDS011;60237;52.338;21.228;2023-03-16T09:33:23;44.58;;;7.55;;
52067;SDS011;60237;52.338;21.228;2023-03-16T09:35:50;73.45;;;9.10;;
52067;SDS011;60237;52.338;21.228;2023-03-16T09:38:17;75.68;;;9.65;;
52067;SDS011;60237;52.338;21.228;2023-03-16T09:40:44;37.05;;;7.25;;
52067;SDS011;60237;52.338;21.228;2023-03-16T09:48:25;88.38;;;9.90;;
52067;SDS011;60237;52.338;21.228;2023-03-16T09:50:54;58.05;;;8.32;;
52067;SDS011;60237;52.338;21.228;2023-03-16T09:53:39;41.58;;;7.55;;
52067;SDS011;60237;52.338;21.228;2023-03-16T09:56:11;51.15;;;7.75;;
52067;SDS011;60237;52.338;21.228;2023-03-16T09:58:39;38.63;;;6.37;;
52067;SDS011;60237;52.338;21.228;2023-03-16T10:06:10;80.65;;;9.05;;
52067;SDS011;60237;52.338;21.228;2023-03-16T10:08:38;44.35;;;6.90;;
52067;SDS011;60237;52.338;21.228;2023-03-16T10:13:49;106.60;;;11.07;;
52067;SDS011;60237;52.338;21.228;2023-03-16T10:16:27;44.97;;;7.63;;
52067;SDS011;60237;52.338;21.228;2023-03-16T10:18:58;72.60;;;9.85;;
52067;SDS011;60237;52.338;21.228;2023-03-16T10:21:25;44.33;;;7.88;;
52067;SDS011;60237;52.338;21.228;2023-03-16T10:23:53;42.38;;;7.57;;
52067;SDS011;60237;52.338;21.228;2023-03-16T10:26:25;54.92;;;8.45;;
52067;SDS011;60237;52.338;21.228;2023-03-16T10:28:53;71.90;;;9.57;;
52067;SDS011;60237;52.338;21.228;2023-03-16T10:31:21;53.95;;;8.27;;
52067;SDS011;60237;52.338;21.228;2023-03-16T10:33:49;52.10;;;9.25;;
52067;SDS011;60237;52.338;21.228;2023-03-16T10:36:23;65.63;;;8.43;;
52067;SDS011;60237;52.338;21.228;2023-03-16T10:38:58;94.68;;;10.85;;
52067;SDS011;60237;52.338;21.228;2023-03-16T10:44:02;75.88;;;9.05;;
52067;SDS011;60237;52.338;21.228;2023-03-16T10:49:04;40.15;;;6.45;;
52067;SDS011;60237;52.338;21.228;2023-03-16T10:51:32;62.10;;;7.63;;
52067;SDS011;60237;52.338;21.228;2023-03-16T10:54:06;44.53;;;6.20;;
52067;SDS011;60237;52.338;21.228;2023-03-16T10:56:33;51.83;;;7.15;;
52067;SDS011;60237;52.338;21.228;2023-03-16T10:59:00;65.15;;;8.30;;
52067;SDS011;60237;52.338;21.228;2023-03-16T11:01:28;36.63;;;6.10;;
52067;SDS011;60237;52.338;21.228;2023-03-16T11:03:55;80.55;;;9.13;;
52067;SDS011;60237;52.338;21.228;2023-03-16T11:06:29;43.42;;;6.82;;
52067;SDS011;60237;52.338;21.228;2023-03-16T11:09:09;56.22;;;7.43;;
52067;SDS011;60237;52.338;21.228;2023-03-16T11:11:37;51.80;;;6.80;;
52067;SDS011;60237;52.338;21.228;2023-03-16T11:14:10;50.65;;;7.15;;
52067;SDS011;60237;52.338;21.228;2023-03-16T11:16:43;49.97;;;6.77;;
52067;SDS011;60237;52.338;21.228;2023-03-16T11:24:19;62.05;;;8.18;;
52067;SDS011;60237;52.338;21.228;2023-03-16T11:26:52;55.60;;;7.00;;
52067;SDS011;60237;52.338;21.228;2023-03-16T11:32:04;56.03;;;7.15;;
52067;SDS011;60237;52.338;21.228;2023-03-16T11:34:32;75.95;;;8.45;;
52067;SDS011;60237;52.338;21.228;2023-03-16T11:37:15;43.00;;;5.50;;
52067;SDS011;60237;52.338;21.228;2023-03-16T11:39:55;95.35;;;8.57;;
52067;SDS011;60237;52.338;21.228;2023-03-16T11:42:38;51.00;;;5.82;;
52067;SDS011;60237;52.338;21.228;2023-03-16T11:45:10;112.55;;;9.68;;
52067;SDS011;60237;52.338;21.228;2023-03-16T11:57:56;51.30;;;5.38;;
52067;SDS011;60237;52.338;21.228;2023-03-16T12:00:45;50.70;;;5.03;;
52067;SDS011;60237;52.338;21.228;2023-03-16T12:03:28;59.38;;;5.65;;
52067;SDS011;60237;52.338;21.228;2023-03-16T12:06:01;44.33;;;4.93;;
52067;SDS011;60237;52.338;21.228;2023-03-16T12:09:07;50.33;;;4.95;;
52067;SDS011;60237;52.338;21.228;2023-03-16T12:11:45;54.40;;;5.30;;
52067;SDS011;60237;52.338;21.228;2023-03-16T12:17:41;50.53;;;5.10;;
52067;SDS011;60237;52.338;21.228;2023-03-16T12:22:08;39.70;;;5.07;;
52067;SDS011;60237;52.338;21.228;2023-03-16T12:24:40;51.67;;;5.28;;
52067;SDS011;60237;52.338;21.228;2023-03-16T12:27:13;79.15;;;6.90;;
52067;SDS011;60237;52.338;21.228;2023-03-16T12:29:43;74.55;;;6.55;;
52067;SDS011;60237;52.338;21.228;2023-03-16T12:35:12;88.90;;;7.88;;
52067;SDS011;60237;52.338;21.228;2023-03-16T12:45:25;62.33;;;6.60;;
52067;SDS011;60237;52.338;21.228;2023-03-16T12:50:23;70.68;;;6.85;;
52067;SDS011;60237;52.338;21.228;2023-03-16T12:52:51;57.10;;;6.70;;
52067;SDS011;60237;52.338;21.228;2023-03-16T12:55:18;45.47;;;6.63;;
52067;SDS011;60237;52.338;21.228;2023-03-16T12:57:47;83.85;;;9.10;;
52067;SDS011;60237;52.338;21.228;2023-03-16T13:00:14;64.90;;;7.75;;
52067;SDS011;60237;52.338;21.228;2023-03-16T13:02:43;51.38;;;6.72;;
52067;SDS011;60237;52.338;21.228;2023-03-16T13:05:11;76.13;;;8.55;;
52067;SDS011;60237;52.338;21.228;2023-03-16T13:07:50;69.65;;;8.23;;
52067;SDS011;60237;52.338;21.228;2023-03-16T13:10:17;95.63;;;9.02;;
52067;SDS011;60237;52.338;21.228;2023-03-16T13:12:46;50.60;;;5.97;;
52067;SDS011;60237;52.338;21.228;2023-03-16T13:17:42;77.10;;;8.10;;
52067;SDS011;60237;52.338;21.228;2023-03-16T13:25:39;55.38;;;7.75;;
52067;SDS011;60237;52.338;21.228;2023-03-16T13:28:14;79.03;;;8.60;;
52067;SDS011;60237;52.338;21.228;2023-03-16T13:30:43;55.30;;;7.60;;
52067;SDS011;60237;52.338;21.228;2023-03-16T13:33:23;63.40;;;7.78;;
52067;SDS011;60237;52.338;21.228;2023-03-16T13:35:51;48.83;;;6.80;;
52067;SDS011;60237;52.338;21.228;2023-03-16T13:38:19;53.67;;;7.00;;
52067;SDS011;60237;52.338;21.228;2023-03-16T13:40:49;100.88;;;10.50;;
52067;SDS011;60237;52.338;21.228;2023-03-16T13:43:16;73.38;;;8.38;;
52067;SDS011;60237;52.338;21.228;2023-03-16T13:45:42;57.53;;;7.07;;
52067;SDS011;60237;52.338;21.228;2023-03-16T13:48:10;79.82;;;8.07;;
52067;SDS011;60237;52.338;21.228;2023-03-16T13:50:37;43.85;;;6.03;;
52067;SDS011;60237;52.338;21.228;2023-03-16T13:53:17;77.47;;;8.15;;
52067;SDS011;60237;52.338;21.228;2023-03-16T13:55:45;71.05;;;7.32;;
52067;SDS011;60237;52.338;21.228;2023-03-16T13:58:18;74.75;;;7.47;;
52067;SDS011;60237;52.338;21.228;2023-03-16T14:00:45;77.35;;;8.05;;
52067;SDS011;60237;52.338;21.228;2023-03-16T14:03:16;57.30;;;6.88;;
52067;SDS011;60237;52.338;21.228;2023-03-16T14:05:43;70.88;;;7.68;;
52067;SDS011;60237;52.338;21.228;2023-03-16T14:08:20;112.85;;;9.90;;
52067;SDS011;60237;52.338;21.228;2023-03-16T14:10:49;62.13;;;7.00;;
52067;SDS011;60237;52.338;21.228;2023-03-16T14:15:49;64.95;;;6.93;;
52067;SDS011;60237;52.338;21.228;2023-03-16T14:18:16;64.65;;;7.28;;
52067;SDS011;60237;52.338;21.228;2023-03-16T14:20:53;60.47;;;6.97;;
52067;SDS011;60237;52.338;21.228;2023-03-16T14:23:24;70.90;;;7.40;;
52067;SDS011;60237;52.338;21.228;2023-03-16T14:25:53;93.25;;;10.15;;
52067;SDS011;60237;52.338;21.228;2023-03-16T14:28:21;58.72;;;7.78;;
52067;SDS011;60237;52.338;21.228;2023-03-16T14:30:53;44.05;;;5.55;;
52067;SDS011;60237;52.338;21.228;2023-03-16T14:33:30;71.30;;;7.30;;
52067;SDS011;60237;52.338;21.228;2023-03-16T14:35:58;95.20;;;9.52;;
52067;SDS011;60237;52.338;21.228;2023-03-16T14:38:29;41.55;;;6.50;;
52067;SDS011;60237;52.338;21.228;2023-03-16T14:41:00;75.63;;;8.00;;
52067;SDS011;60237;52.338;21.228;2023-03-16T14:43:29;54.42;;;7.28;;
52067;SDS011;60237;52.338;21.228;2023-03-16T14:45:58;115.25;;;10.90;;
52067;SDS011;60237;52.338;21.228;2023-03-16T14:48:25;61.72;;;6.43;;
52067;SDS011;60237;52.338;21.228;2023-03-16T14:50:54;46.42;;;5.85;;
52067;SDS011;60237;52.338;21.228;2023-03-16T14:53:21;89.38;;;8.57;;
52067;SDS011;60237;52.338;21.228;2023-03-16T14:55:49;71.88;;;7.95;;
52067;SDS011;60237;52.338;21.228;2023-03-16T14:58:16;63.00;;;11.75;;
52067;SDS011;60237;52.338;21.228;2023-03-16T15:00:42;85.75;;;10.45;;
52067;SDS011;60237;52.338;21.228;2023-03-16T15:03:19;65.97;;;9.60;;
52067;SDS011;60237;52.338;21.228;2023-03-16T15:05:46;65.63;;;8.57;;
52067;SDS011;60237;52.338;21.228;2023-03-16T15:08:18;104.78;;;9.35;;
52067;SDS011;60237;52.338;21.228;2023-03-16T15:10:46;55.53;;;6.60;;
52067;SDS011;60237;52.338;21.228;2023-03-16T15:13:13;79.95;;;8.13;;
52067;SDS011;60237;52.338;21.228;2023-03-16T15:15:42;59.83;;;7.32;;
52067;SDS011;60237;52.338;21.228;2023-03-16T15:18:09;53.30;;;6.68;;
52067;SDS011;60237;52.338;21.228;2023-03-16T15:20:39;70.32;;;9.25;;
52067;SDS011;60237;52.338;21.228;2023-03-16T15:23:08;84.50;;;13.95;;
52067;SDS011;60237;52.338;21.228;2023-03-16T15:25:36;58.53;;;13.38;;
52067;SDS011;60237;52.338;21.228;2023-03-16T15:30:39;59.97;;;12.45;;
52067;SDS011;60237;52.338;21.228;2023-03-16T15:33:07;62.92;;;10.48;;
52067;SDS011;60237;52.338;21.228;2023-03-16T15:35:33;63.55;;;8.75;;
52067;SDS011;60237;52.338;21.228;2023-03-16T15:38:03;69.80;;;9.82;;
52067;SDS011;60237;52.338;21.228;2023-03-16T15:40:31;61.10;;;11.40;;
52067;SDS011;60237;52.338;21.228;2023-03-16T15:42:57;79.10;;;14.82;;